Main page
METAR-TAF:

METAR-TAF

Airports :

Brighton City Airport (Shoreham Airport)

Brighton, England

latitude: 50-50N, longitude: 000-17W, elevation: 2 m

Current weather observation

The report was made 1 hour and 31 minutes ago, at 19:50 UTC
Wind 10 kt from the Southwest
Temperature 12°C
Humidity 88%
Pressure 1025 hPa
Visibility 10 km or more
Few clouds at a height of 2800 ft

METAR: EGKA 131950Z 22010KT 9999 FEW028 12/10 Q1025

Time: 21:21 (21:21 UTC)

Forecast

The report was made 7 hours and 21 minutes ago, at 14:00 UTC
Forecast valid from 13 at 15 UTC to 13 at 19 UTC
Wind 13 kt from the West/Southwest
Visibility 10 km or more
Few clouds at a height of 2000 ft

TAF: EGKA 131400Z 1315/1319 25013KT 9999 FEW020

Weather observations and forecasts of more than 4000 airports (METAR and TAF reports).

The available stations are represented by yellow and red dots on the map.

Hover mouse over dot to see the name of the station.

Then click to see weather observations and forecasts.

To change the map : click on the green buttons with a black cross to zoom in, on the green button with a dash to zoom out, or on the green arrows for adjacent maps.


METAR-TAF: